createdAt,value
2018-12-08T00:01:14.487Z,100316.67
2018-12-08T00:03:50.412Z,100321.09
2018-12-08T00:06:22.372Z,100308.93
2018-12-08T00:08:56.196Z,100312.13
2018-12-08T00:11:28.287Z,100313.31
2018-12-08T00:14:02.076Z,100306.97
2018-12-08T00:16:36.114Z,100302.50
2018-12-08T00:19:07.922Z,100301.55
2018-12-08T00:21:41.713Z,100305.04
2018-12-08T00:24:18.106Z,100307.05
2018-12-08T00:26:57.402Z,100314.58
2018-12-08T00:29:31.765Z,100312.56
2018-12-08T00:32:03.476Z,100308.45
2018-12-08T00:34:42.173Z,100309.06
2018-12-08T00:37:22.065Z,100308.54
2018-12-08T00:39:56.159Z,100309.23
2018-12-08T00:42:31.127Z,100306.45
2018-12-08T00:44:59.188Z,100289.38
2018-12-08T00:47:34.524Z,100314.00
2018-12-08T00:50:08.094Z,100314.53
2018-12-08T00:52:43.131Z,100323.19
2018-12-08T00:55:18.738Z,100313.62
2018-12-08T00:57:52.683Z,100318.34
2018-12-08T01:00:26.762Z,100320.57
2018-12-08T01:05:45.073Z,100318.86
2018-12-08T01:08:19.846Z,100326.47
2018-12-08T01:10:54.550Z,100315.44
2018-12-08T01:13:28.772Z,100310.86
2018-12-08T01:16:02.940Z,100313.61
2018-12-08T01:18:36.919Z,100307.05
2018-12-08T01:21:08.368Z,100304.52
2018-12-08T01:23:44.230Z,100296.95
2018-12-08T01:26:13.886Z,100305.09
2018-12-08T01:28:50.426Z,100306.97
2018-12-08T01:34:19.755Z,100303.80
2018-12-08T01:36:54.566Z,100297.33
2018-12-08T01:39:28.683Z,100304.64
2018-12-08T02:03:23.168Z,100280.88
2018-12-08T02:06:08.649Z,100279.05
2018-12-08T02:08:39.302Z,100282.03
2018-12-08T02:11:09.796Z,100259.08
2018-12-08T02:13:41.480Z,100283.17
2018-12-08T02:16:09.612Z,100269.39
2018-12-08T02:18:51.462Z,100269.66
2018-12-08T02:21:19.737Z,100269.27
2018-12-08T02:23:47.833Z,100262.05
2018-12-08T02:26:15.919Z,100263.58
2018-12-08T02:28:44.570Z,100261.75
2018-12-08T02:31:12.775Z,100266.20
2018-12-08T02:33:49.401Z,100262.80
2018-12-08T02:39:21.482Z,100251.38
2018-12-08T02:41:55.084Z,100242.73
2018-12-08T02:44:35.491Z,100236.53
2018-12-08T02:47:13.358Z,100229.53
2018-12-08T02:49:52.231Z,100226.77
2018-12-08T02:52:24.299Z,100216.27
2018-12-08T02:54:57.184Z,100215.06
2018-12-08T02:57:31.792Z,100211.95
2018-12-08T02:59:59.910Z,100202.46
2018-12-08T03:02:33.586Z,100214.78
2018-12-08T03:05:09.964Z,100216.09
2018-12-08T03:07:53.071Z,100215.12
2018-12-08T03:10:27.299Z,100215.59
2018-12-08T03:12:57.014Z,100203.71
2018-12-08T03:18:30.906Z,100211.25
2018-12-08T03:21:03.675Z,100198.35
2018-12-08T03:23:38.901Z,100199.84
2018-12-08T03:26:12.884Z,100201.33
2018-12-08T03:28:45.900Z,100204.70
2018-12-08T03:31:19.373Z,100188.50
2018-12-08T03:33:53.340Z,100200.22
2018-12-08T03:36:22.106Z,100185.50
2018-12-08T03:38:50.126Z,100192.23
2018-12-08T03:41:19.293Z,100187.29
2018-12-08T03:43:53.801Z,100185.88
2018-12-08T03:46:28.262Z,100171.77
2018-12-08T03:52:04.993Z,100179.61
2018-12-08T03:54:33.110Z,100174.32
2018-12-08T03:57:02.212Z,100159.31
2018-12-08T03:59:30.264Z,100165.80
2018-12-08T04:01:58.512Z,100175.65
2018-12-08T04:04:27.704Z,100170.28
2018-12-08T04:06:59.129Z,100159.45
2018-12-08T04:09:43.122Z,100161.91
2018-12-08T04:14:48.623Z,100152.81
2018-12-08T04:17:22.874Z,100152.55
2018-12-08T04:20:09.216Z,100142.41
2018-12-08T04:22:43.599Z,100138.42
2018-12-08T04:25:21.135Z,100133.52
2018-12-08T04:27:49.217Z,100135.62
2018-12-08T04:30:28.800Z,100136.55
2018-12-08T04:33:13.348Z,100132.63
2018-12-08T04:35:47.177Z,100131.30
2018-12-08T04:38:19.111Z,100125.48
2018-12-08T04:40:53.011Z,100129.14
2018-12-08T04:43:21.147Z,100128.08
2018-12-08T04:45:49.516Z,100122.17
2018-12-08T04:48:18.610Z,100116.66
2018-12-08T04:50:57.062Z,100119.53
2018-12-08T04:53:31.302Z,100106.44
2018-12-08T04:56:00.736Z,100082.98
2018-12-08T04:58:37.240Z,100108.52
2018-12-08T05:01:13.790Z,100098.16
2018-12-08T05:03:52.321Z,100096.00
2018-12-08T05:09:24.947Z,100095.08
2018-12-08T05:12:00.495Z,100098.41
2018-12-08T05:14:35.598Z,100086.28
2018-12-08T05:17:24.291Z,100096.28
2018-12-08T05:20:02.150Z,100096.73
2018-12-08T05:22:39.734Z,100097.52
2018-12-08T05:27:59.931Z,100092.19
2018-12-08T05:30:39.039Z,100090.12
2018-12-08T05:36:06.075Z,100077.98
2018-12-08T05:38:43.164Z,100083.61
2018-12-08T05:41:16.219Z,100085.42
2018-12-08T05:43:57.774Z,100078.53
2018-12-08T05:49:42.968Z,100082.46
2018-12-08T05:52:20.235Z,100073.41
2018-12-08T05:54:52.128Z,100075.28
2018-12-08T06:00:08.166Z,100079.52
2018-12-08T06:02:44.888Z,100052.81
2018-12-08T06:05:13.012Z,100067.13
2018-12-08T06:07:42.125Z,100063.38
2018-12-08T06:10:12.849Z,100063.13
2018-12-08T06:12:48.826Z,100054.97
2018-12-08T06:15:22.047Z,100070.34
2018-12-08T06:17:59.798Z,100060.59
2018-12-08T06:20:33.677Z,100063.56
2018-12-08T06:23:05.997Z,100069.19
2018-12-08T06:25:38.890Z,100062.48
2018-12-08T06:28:17.753Z,100054.14
2018-12-08T06:30:57.636Z,100058.97
2018-12-08T06:33:37.646Z,100047.34
2018-12-08T06:36:36.760Z,100044.87
2018-12-08T06:39:11.663Z,100047.45
2018-12-08T06:47:28.859Z,100042.52
2018-12-08T06:56:16.798Z,100033.83
2018-12-08T06:58:51.366Z,100039.67
2018-12-08T07:01:24.234Z,100033.13
2018-12-08T07:03:58.487Z,100044.23
2018-12-08T07:06:33.370Z,100053.98
2018-12-08T07:09:07.709Z,100043.86
2018-12-08T07:11:43.391Z,100057.45
2018-12-08T07:14:25.352Z,100064.23
2018-12-08T07:16:54.285Z,100042.02
2018-12-08T07:19:35.107Z,100047.63
2018-12-08T07:22:13.958Z,100027.63
2018-12-08T07:24:55.594Z,100035.38
2018-12-08T07:27:32.247Z,100033.95
2018-12-08T07:30:14.418Z,100046.02
2018-12-08T07:38:29.898Z,100032.30
2018-12-08T07:41:07.274Z,100038.40
2018-12-08T07:44:07.380Z,100038.88
2018-12-08T07:46:53.069Z,100041.31
2018-12-08T07:52:12.040Z,100041.02
2018-12-08T07:54:47.146Z,100035.84
2018-12-08T08:00:06.841Z,100040.22
2018-12-08T08:02:42.979Z,100025.98
2018-12-08T08:05:17.550Z,100047.58
2018-12-08T08:07:54.540Z,100045.81
2018-12-08T08:13:22.128Z,100047.37
2018-12-08T08:15:56.406Z,100046.45
2018-12-08T08:18:31.068Z,100042.07
2018-12-08T08:21:17.121Z,100040.14
2018-12-08T08:23:52.519Z,100034.66
2018-12-08T08:26:34.031Z,100034.28
2018-12-08T08:29:08.383Z,100034.65
2018-12-08T08:34:28.195Z,100037.45
2018-12-08T08:37:00.616Z,100044.27
2018-12-08T08:39:35.652Z,100023.84
2018-12-08T09:02:38.869Z,100034.42
2018-12-08T09:08:04.108Z,100037.08
2018-12-08T09:10:56.173Z,100047.27
2018-12-08T09:16:30.912Z,100050.42
2018-12-08T09:22:33.099Z,100061.22
2018-12-08T09:30:01.381Z,100058.68
2018-12-08T09:35:26.827Z,100065.70
2018-12-08T09:38:05.099Z,100077.77
2018-12-08T09:50:38.096Z,100079.70
2018-12-08T09:53:18.449Z,100084.58
2018-12-08T09:56:00.381Z,100088.40
2018-12-08T10:04:58.301Z,100083.95
2018-12-08T10:10:51.703Z,100087.82
2018-12-08T10:16:15.865Z,100084.27
2018-12-08T10:33:47.700Z,100082.23
2018-12-08T10:36:33.314Z,100106.56
2018-12-08T10:42:14.082Z,100083.20
2018-12-08T10:53:53.613Z,100105.83
2018-12-08T10:56:52.119Z,100109.37
2018-12-08T10:59:39.318Z,100105.14
2018-12-08T11:02:21.729Z,100111.16
2018-12-08T11:11:03.752Z,100085.69
2018-12-08T11:22:36.734Z,100096.31
2018-12-08T11:25:21.334Z,100101.16
2018-12-08T11:54:34.764Z,100120.30
2018-12-08T11:57:28.574Z,100104.50
2018-12-08T12:00:03.686Z,100104.64
2018-12-08T12:02:43.398Z,100094.47
2018-12-08T12:05:22.463Z,100106.85
2018-12-08T12:15:09.979Z,100099.05
2018-12-08T12:20:35.000Z,100104.67
2018-12-08T12:25:56.352Z,100104.13
2018-12-08T12:28:41.759Z,100111.23
2018-12-08T12:31:23.160Z,100101.44
2018-12-08T12:36:48.113Z,100108.50
2018-12-08T12:39:22.507Z,100101.70
2018-12-08T12:41:56.384Z,100101.61
2018-12-08T12:44:31.655Z,100105.14
2018-12-08T12:47:15.124Z,100094.61
2018-12-08T12:49:51.306Z,100081.01
2018-12-08T12:52:36.183Z,100116.56
2018-12-08T12:55:18.093Z,100123.47
2018-12-08T12:58:08.347Z,100121.94
2018-12-08T13:00:48.050Z,100122.47
2018-12-08T13:03:25.114Z,100107.87
2018-12-08T13:06:07.999Z,100116.30
2018-12-08T13:08:44.218Z,100131.81
2018-12-08T13:11:19.955Z,100116.41
2018-12-08T13:13:54.941Z,100115.53
2018-12-08T13:16:34.891Z,100121.35
2018-12-08T13:19:09.083Z,100107.41
2018-12-08T13:21:45.146Z,100124.17
2018-12-08T13:24:19.648Z,100130.06
2018-12-08T13:26:55.335Z,100128.13
2018-12-08T13:29:29.489Z,100122.20
2018-12-08T13:32:07.590Z,100121.80
2018-12-08T13:34:43.101Z,100117.27
2018-12-08T13:37:30.301Z,100118.27
2018-12-08T13:40:06.516Z,100111.77
2018-12-08T13:42:41.673Z,100116.67
2018-12-08T13:45:16.881Z,100116.04
2018-12-08T13:50:49.357Z,100105.37
2018-12-08T13:53:36.527Z,100089.79
2018-12-08T13:56:13.537Z,100099.38
2018-12-08T13:58:47.517Z,100090.27
2018-12-08T14:01:23.272Z,100089.08
2018-12-08T14:03:57.419Z,100097.66
2018-12-08T14:06:33.748Z,100089.97
2018-12-08T14:09:15.391Z,100102.28
2018-12-08T14:11:49.471Z,100091.44
2018-12-08T14:14:29.264Z,100097.58
2018-12-08T14:17:03.111Z,100090.65
2018-12-08T14:19:36.750Z,100093.44
2018-12-08T14:22:12.925Z,100096.95
2018-12-08T14:24:46.717Z,100090.89
2018-12-08T14:27:24.035Z,100087.17
2018-12-08T14:29:58.921Z,100080.30
2018-12-08T14:32:33.061Z,100084.09
2018-12-08T14:35:01.732Z,100083.17
2018-12-08T14:37:31.794Z,100086.41
2018-12-08T14:40:05.825Z,100089.83
2018-12-08T14:42:34.129Z,100095.97
2018-12-08T14:45:14.871Z,100093.47
2018-12-08T14:47:51.708Z,100096.16
2018-12-08T14:50:30.563Z,100091.50
2018-12-08T14:53:05.281Z,100094.34
2018-12-08T14:55:39.192Z,100081.16
2018-12-08T15:01:08.503Z,100075.63
2018-12-08T15:03:44.268Z,100074.37
2018-12-08T15:06:18.776Z,100070.69
2018-12-08T15:08:53.266Z,100066.64
2018-12-08T15:11:22.414Z,100072.98
2018-12-08T15:13:56.815Z,100059.45
2018-12-08T15:16:31.158Z,100061.63
2018-12-08T15:19:12.285Z,100069.09
2018-12-08T15:21:43.909Z,100054.08
2018-12-08T15:24:15.027Z,100044.45
2018-12-08T15:30:29.461Z,100048.16
2018-12-08T15:33:04.763Z,100040.20
2018-12-08T15:35:46.074Z,100015.72
2018-12-08T15:38:29.190Z,100041.29
2018-12-08T15:41:05.841Z,100018.02
2018-12-08T15:43:34.916Z,100029.11
2018-12-08T15:46:14.999Z,100025.77
2018-12-08T15:48:50.251Z,100022.81
2018-12-08T15:51:24.157Z,100011.48
2018-12-08T15:54:00.179Z,99956.93
2018-12-08T15:59:22.157Z,99988.65
2018-12-08T16:01:56.512Z,99985.70
2018-12-08T16:04:35.112Z,99980.11
2018-12-08T16:07:10.055Z,99973.36
2018-12-08T16:09:48.481Z,99961.39
2018-12-08T16:12:23.387Z,99955.25
2018-12-08T16:14:59.081Z,99946.63
2018-12-08T16:17:33.417Z,99936.09
2018-12-08T16:20:10.054Z,99925.70
2018-12-08T16:22:47.402Z,99923.30
2018-12-08T16:25:23.807Z,99911.96
2018-12-08T16:27:59.939Z,99907.23
2018-12-08T16:30:40.059Z,99885.25
2018-12-08T16:33:17.835Z,99888.56
2018-12-08T16:35:54.369Z,99876.66
2018-12-08T16:38:30.996Z,99873.27
2018-12-08T16:41:10.587Z,99865.66
2018-12-08T16:43:44.924Z,99861.70
2018-12-08T16:46:22.835Z,99852.14
2018-12-08T16:48:58.252Z,99851.45
2018-12-08T16:55:08.025Z,99843.80
2018-12-08T17:03:26.395Z,99796.61
2018-12-08T17:09:03.211Z,99765.13
2018-12-08T17:14:38.192Z,99749.04
2018-12-08T17:20:02.292Z,99731.22
2018-12-08T17:22:38.215Z,99728.96
2018-12-08T17:25:12.689Z,99733.36
2018-12-08T17:33:27.404Z,99727.63
2018-12-08T18:21:04.268Z,99544.66
2018-12-08T18:48:16.367Z,99496.21
2018-12-08T18:52:32.791Z,99445.72
2018-12-08T18:55:14.419Z,99420.01
2018-12-08T19:00:49.002Z,99420.05
2018-12-08T19:03:27.557Z,99415.20
2018-12-08T19:15:35.693Z,99390.28
2018-12-08T19:27:15.397Z,99366.31
2018-12-08T19:33:37.166Z,99357.83
2018-12-08T19:39:15.127Z,99350.31
2018-12-08T19:53:35.542Z,99324.63
2018-12-08T20:08:19.958Z,99301.23
2018-12-08T20:13:45.204Z,99285.95
2018-12-08T20:16:23.538Z,99280.38
2018-12-08T20:25:06.215Z,99273.90
2018-12-08T20:28:00.261Z,99273.73
2018-12-08T20:30:49.049Z,99266.80
2018-12-08T20:33:32.503Z,99257.39
2018-12-08T20:53:32.068Z,99246.06
2018-12-08T20:56:14.812Z,99233.30
2018-12-08T21:01:50.193Z,99222.06
2018-12-08T21:04:32.887Z,99222.28
2018-12-08T21:14:14.676Z,99205.78
2018-12-08T21:22:34.137Z,99201.52
2018-12-08T21:25:20.396Z,99205.79
2018-12-08T21:33:33.624Z,99193.17
2018-12-08T21:36:16.805Z,99202.97
2018-12-08T21:39:11.759Z,99212.44
2018-12-08T21:41:53.492Z,99201.69
2018-12-08T21:50:02.192Z,99242.86
2018-12-08T21:52:46.770Z,99220.28
2018-12-08T21:56:03.008Z,99225.55
2018-12-08T21:58:43.499Z,99251.11
2018-12-08T22:01:27.769Z,99250.33
2018-12-08T22:15:20.692Z,99268.81
2018-12-08T22:17:59.530Z,99271.80
2018-12-08T22:20:39.397Z,99257.10
2018-12-08T22:23:16.472Z,99256.99
2018-12-08T22:27:25.934Z,99238.21
2018-12-08T22:30:00.155Z,99228.98
2018-12-08T22:32:43.098Z,99219.59
2018-12-08T22:38:07.856Z,99195.77
2018-12-08T22:40:40.384Z,99216.05
2018-12-08T22:43:16.897Z,99208.93
2018-12-08T22:45:55.867Z,99213.94
2018-12-08T22:48:33.924Z,99204.09
2018-12-08T22:54:02.373Z,99171.17
2018-12-08T22:56:36.804Z,99205.02
2018-12-08T22:59:09.117Z,99215.30
2018-12-08T23:01:47.809Z,99231.87
2018-12-08T23:04:31.047Z,99215.30
2018-12-08T23:07:04.984Z,99218.45
2018-12-08T23:09:41.710Z,99208.61
2018-12-08T23:15:41.720Z,99216.45
2018-12-08T23:18:25.931Z,99227.23
2018-12-08T23:21:09.355Z,99217.30
2018-12-08T23:26:41.190Z,99263.34
2018-12-08T23:32:14.385Z,99266.65
2018-12-08T23:34:59.229Z,99265.44
2018-12-08T23:37:47.641Z,99258.70
2018-12-08T23:40:31.592Z,99266.36
2018-12-08T23:46:01.304Z,99279.45
2018-12-08T23:48:36.839Z,99275.60
2018-12-08T23:51:14.228Z,99284.64
2018-12-08T23:53:54.019Z,99287.44
2018-12-08T23:56:39.302Z,99246.30
